Big Arm, MT (59910)

9:08 AM MST on February 13, 2016 (GMT -0700)
Polson Bay | | Change Station
CLOSE
Current Station
Personal Weather Station
Location: Polson, MT
Elevation: 2917 ft
Nearby Weather Stations

Elev 2917 ft 47.73 °N, 114.19 °W | Updated 52 seconds ago

Overcast
Overcast
39.7 °F
Feels Like 40 °F
N
0.0
Wind Variable Wind from SSW
Gusts 6.0 mph

Today
High -- | Low -- °F
--% Chance of Precip.
Yesterday
High -- | Low -- °F
Precip. -- in
Pressure 30.19 in
Visibility 10.0 miles
Clouds Few 4700 ft
Scattered Clouds 6000 ft
Overcast 7500 ft
Windchill 40 °F
Dew Point 29 °F
Humidity 65%
Rainfall 0.05 in
Snow Depth Not available.
7:47 AM 5:56 PM
Waxing Crescent, 32% visible
METAR KMSO 131553Z AUTO VRB04KT 10SM FEW047 SCT060 OVC075 03/02 A3013 RMK AO2 SLP224 T00330022 $
Pressure 30.19 in
Visibility 10.0 miles
Clouds Few 4700 ft
Scattered Clouds 6000 ft
Overcast 7500 ft
Windchill 40 °F
Dew Point 29 °F
Humidity 65%
Rainfall 0.05 in
Snow Depth Not available.
7:47 AM 5:56 PM
Waxing Crescent, 32% visible
METAR KMSO 131553Z AUTO VRB04KT 10SM FEW047 SCT060 OVC075 03/02 A3013 RMK AO2 SLP224 T00330022 $

10-Day Weather Forecast

Almanac

Astronomy

Feb. 13, 2016 Rise Set
Actual Time
Civil Twilight
Nautical Twilight
Astronomical Twilight
Moon
Length of Visible Light
Length of Day
Tomorrow will be .
, % of the Moon is Illuminated

Today's Extremes

State Highs State Lows

Community

WunderPhotos

Upload Photos

1,892,595 photos uploaded!

WunderBlog® & News

Nearby

Air Quality

  Air Quality AQ Index Pollutant
Not available.

Snow Depth

Station Depth Elevation

Earthquake Activity

City Distance Mag. Time & Date
Minimum magnitude displayed is 2.5.

Coastal Water Temperatures

Place Temperature

Stations

Nearby Weather Stations

Station Location Temp. Windchill Dew Point Humidity Wind Precip. Elev Updated Type
                   

Watches & Warnings

There are currently no watches in effect.